Crew | Aerofun Virtual



 METAR AND TAF INFORMATION
METAR FOR LEDA
ADDS - METARS form results

(0456 UTC 20 May 2019)
Data provider http://aviationweather.gov/metar/data/
 
METAR text: LEDA 200430Z AUTO 20005KT 9999 NCD 06/06 Q1011
Conditions at: LEDA (LLEIDA-ALGUAIRE , ES) observed 0430 UTC 20 May 2019
Temperature: 6.0°C (43°F)
Dewpoint: 6.0°C (43°F) [RH = 100%]
Pressure (altimeter): 29.85 inches Hg (1011.0 mb)
Winds: from the SSW (200 degrees) at 6 MPH (5 knots; 2.6 m/s)
Visibility: 6 or more miles (10+ km)
Ceiling: at least 12,000 feet AGL
Clouds: sky clear below 12,000 feet AGL
Weather: no significant weather observed at this time

METAR text: LEDA 200400Z AUTO 21004KT 9999 NCD 07/06 Q1011
Conditions at: LEDA (LLEIDA-ALGUAIRE , ES) observed 0400 UTC 20 May 2019
Temperature: 7.0°C (45°F)
Dewpoint: 6.0°C (43°F) [RH = 93%]
Pressure (altimeter): 29.85 inches Hg (1011.0 mb)
Winds: from the SSW (210 degrees) at 5 MPH (4 knots; 2.1 m/s)
Visibility: 6 or more miles (10+ km)
Ceiling: at least 12,000 feet AGL
Clouds: sky clear below 12,000 feet AGL
Weather: no significant weather observed at this time

 AIRPORT MAP

 RUNWAY INFORMATION

 AIRPORT FREQUENCIES

 AIRPORT NEAR NAVIGATION AIDS